Frederike Selmer — V7QY8 — position and weather

sailwx.info

Track history (hours):
 
Tides and Currents Weather Stations Pressure Air Temp Water Temp Dewpoint Dewpoint Depression Visibility Wind Speed Wind Dir Waves Ship Positions

Frederike Selmer

Last reported at 2015-Apr-26 07:14 UTC. Time now 2015-May-26 15:52 UTC.
Position N 17°24' E 040°25'.
Warning: this ship's position is 30 days out of date.

Length 188 m; draft 12 m.

Type: Cargo ship. MMSI: 538090377.

Date/timePositionNaut miles runAvg speedWind from/ knotsBaromVisibWave heightAir tempDewpointWater temp
2015-Apr-26 07:14N 17°24' E 040°25'  
2015-Apr-19 08:33N 36°22' E 014°53'1212.2
2015-Apr-19 07:33N 36°26' E 014°39'1212.3
2015-Apr-19 06:33N 36°30' E 014°24'1212.1
2015-Apr-19 05:33N 36°33' E 014°10'1212.1
2015-Apr-19 04:33N 36°37' E 013°55'1212.1
2015-Apr-19 03:33N 36°40' E 013°41'1212.1
2015-Apr-19 02:33N 36°44' E 013°27'1312.5
2015-Apr-19 01:33N 36°49' E 013°12'1212.3
2015-Apr-19 00:33N 36°52' E 012°57'1212.3
2015-Apr-18 23:33N 36°56' E 012°43'1312.7
2015-Apr-18 22:33N 37°00' E 012°28'1412.7
2015-Apr-18 21:25N 37°05' E 012°11'1312.3
2015-Apr-18 20:23N 37°09' E 011°55'1312.0
2015-Apr-18 19:18N 37°13' E 011°40'911.8
2015-Apr-18 18:33N 37°15' E 011°29'1411.9
2015-Apr-18 17:22N 37°21' E 011°13'2111.6
2015-Apr-18 15:33N 37°27' E 010°48'1511.5
2015-Apr-18 14:13N 37°31' E 010°29'911.7
2015-Apr-18 13:30N 37°33' E 010°19'1111.6
2015-Apr-18 12:32N 37°33' E 010°04'1111.2
2015-Apr-18 11:33N 37°31' E 009°51'1111.4
2015-Apr-18 10:33N 37°28' E 009°37'1211.4
2015-Apr-18 09:29N 37°24' E 009°23'1111.3
2015-Apr-18 08:33N 37°21' E 009°10'1411.3
2015-Apr-18 07:16N 37°19' E 008°52'39812.2
2015-Apr-16 22:34N 36°42' E 000°36'2713.2
2015-Apr-16 20:31N 36°36' E 000°03'1312.8
2015-Apr-16 19:32N 36°34' W 000°13'  
Track history (hours):
 
Tides and Currents Weather Stations Pressure Air Temp Water Temp Dewpoint Dewpoint Depression Visibility Wind Speed Wind Dir Waves Ship Positions

Frederike Selmer

Last reported at 2015-Apr-26 07:14 UTC. Time now 2015-May-26 15:52 UTC.
Position N 17°24' E 040°25'.
Warning: this ship's position is 30 days out of date.

Length 188 m; draft 12 m.

Type: Cargo ship. MMSI: 538090377.

Date/timePositionNaut miles runAvg speedWind from/ knotsBaromVisibWave heightAir tempDewpointWater temp
2015-Apr-26 07:14N 17°24' E 040°25'  
2015-Apr-19 08:33N 36°22' E 014°53'1212.2
2015-Apr-19 07:33N 36°26' E 014°39'1212.3
2015-Apr-19 06:33N 36°30' E 014°24'1212.1
2015-Apr-19 05:33N 36°33' E 014°10'1212.1
2015-Apr-19 04:33N 36°37' E 013°55'1212.1
2015-Apr-19 03:33N 36°40' E 013°41'1212.1
2015-Apr-19 02:33N 36°44' E 013°27'1312.5
2015-Apr-19 01:33N 36°49' E 013°12'1212.3
2015-Apr-19 00:33N 36°52' E 012°57'1212.3
2015-Apr-18 23:33N 36°56' E 012°43'1312.7
2015-Apr-18 22:33N 37°00' E 012°28'1412.7
2015-Apr-18 21:25N 37°05' E 012°11'1312.3
2015-Apr-18 20:23N 37°09' E 011°55'1312.0
2015-Apr-18 19:18N 37°13' E 011°40'911.8
2015-Apr-18 18:33N 37°15' E 011°29'1411.9
2015-Apr-18 17:22N 37°21' E 011°13'2111.6
2015-Apr-18 15:33N 37°27' E 010°48'1511.5
2015-Apr-18 14:13N 37°31' E 010°29'911.7
2015-Apr-18 13:30N 37°33' E 010°19'1111.6
2015-Apr-18 12:32N 37°33' E 010°04'1111.2
2015-Apr-18 11:33N 37°31' E 009°51'1111.4
2015-Apr-18 10:33N 37°28' E 009°37'1211.4
2015-Apr-18 09:29N 37°24' E 009°23'1111.3
2015-Apr-18 08:33N 37°21' E 009°10'1411.3
2015-Apr-18 07:16N 37°19' E 008°52'39812.2
2015-Apr-16 22:34N 36°42' E 000°36'2713.2
2015-Apr-16 20:31N 36°36' E 000°03'1312.8
2015-Apr-16 19:32N 36°34' W 000°13'  

Dump ship's entire track history